Fort Worth Alliance Airport
KAFW : now visible

Airfield :











YOU CAN JOIN US ON...

 
LOGIN :

Register | Disclaimer

   EN    FR    IT 

 









Legend :    VFR   Marginal VFR   IFR   Intensive IFR   Very Intensive IFR
Visi :
Ceiling :
>= 8 km
>= 3000ft
5 to 8 km
1000 to 3000 ft
1500m to 5 km
500 to 1000 ft
800 to 1500m
200 to 500 ft
< 800m
< 200 ft
Symbols :   Thunderstorms  Fog  Heavy snow  Heavy precipitations  Wind > 20 kt






- Airport Elevation : 722 ft


KAFW - Fort Worth Alliance

CURRENT METAR :
  • 040453Z 00000KT 10SM FEW250 28/23 A2996 RMK AO2 SLP127 T02780228 $

EXPIRED METARs :
  • 040353Z 11004KT 10SM FEW250 28/22 A2995 RMK AO2 SLP125 T02830222 $
  • 040253Z 09004KT 10SM FEW250 28/21 A2994 RMK AO2 SLP120 T02830211 55002 $

TAF KAFW
Valid from the 04 at 06:00 until the 05 at 06:00 UTC


040520Z 0406/0506 18011KT P6SM FEW250
KZFW FIR / North America



MET'MAP, your aeronautical weather chart ! - Copyright ORBIFLY December 2007 - Disclaimer

ORBIFLY MET'MAP TEAM :

Programming & Development : Alexandra Zaïnal
Original concept : Baudouin d'Aumeries
Technical & hardware support : Manuel Goepfert
Assistance : Marc-Olivier Méhu




SOURCES & CREDITS :

   NOAA       Earth
Advisory